Time;durP1;ratioP1;P1;durP2;ratioP2;P2;SDS_P1;SDS_P2;PMS_P1;PMS_P2;Temp;Humidity;BMP_temperature;BMP_pressure;BME280_temperature;BME280_humidity;BME280_pressure;Samples;Min_cycle;Max_cycle;Signal;HPM_P1;HPM_P2
2023/09/01 00:00:04;;;;;;;1.60;1.17;;;;;;;17.97;86.90;99240.31;336206;28;17848;-71
2023/09/01 00:00:17;;;;;;;2.20;1.20;;;;;;;17.98;87.05;99244.59;339750;28;4513;-72
2023/09/01 00:00:29;;;;;;;2.75;1.13;;;;;;;17.98;87.05;99234.09;337401;28;18040;-71
2023/09/01 00:00:41;;;;;;;2.70;1.10;;;;;;;17.98;87.03;99243.78;339070;28;5592;-71
2023/09/01 00:00:57;;;;;;;3.95;1.20;;;;;;;17.95;86.83;99245.66;336812;28;18245;-71
2023/09/01 00:01:09;;;;;;;4.10;1.30;;;;;;;17.96;86.85;99241.25;336289;28;17677;-70
2023/09/01 00:01:22;;;;;;;2.45;1.10;;;;;;;17.93;87.20;99247.56;339745;28;5399;-71
2023/09/01 00:01:34;;;;;;;2.10;1.10;;;;;;;17.93;87.30;99247.56;337341;28;19029;-72
2023/09/01 00:01:46;;;;;;;2.47;1.00;;;;;;;17.93;87.30;99247.56;339914;28;4728;-72
2023/09/01 00:01:58;;;;;;;2.83;1.13;;;;;;;17.93;87.26;99252.81;336990;28;11742;-73
2023/09/01 00:02:13;;;;;;;1.70;1.00;;;;;;;17.92;87.42;99251.13;339098;28;5195;-73
2023/09/01 00:02:25;;;;;;;1.35;0.90;;;;;;;17.92;87.42;99250.28;336272;28;16660;-72
2023/09/01 00:02:37;;;;;;;1.23;0.90;;;;;;;17.93;87.44;99246.72;339349;28;4518;-72
2023/09/01 00:02:49;;;;;;;2.28;1.10;;;;;;;17.91;87.65;99252.09;333407;28;16893;-72
2023/09/01 00:03:01;;;;;;;2.60;1.20;;;;;;;17.90;87.73;99253.03;339280;28;4696;-72
2023/09/01 00:03:13;;;;;;;2.17;1.20;;;;;;;17.90;87.64;99253.03;338721;28;11658;-72
2023/09/01 00:03:26;;;;;;;1.77;1.05;;;;;;;17.91;87.71;99249.47;336858;28;18111;-71
2023/09/01 00:03:38;;;;;;;1.73;1.00;;;;;;;17.92;87.71;99245.88;339206;28;4501;-72
2023/09/01 00:03:51;;;;;;;2.15;1.08;;;;;;;17.93;87.63;99252.00;336693;28;16648;-72
2023/09/01 00:04:03;;;;;;;2.10;1.15;;;;;;;17.93;87.62;99249.38;331569;28;5466;-72
2023/09/01 00:04:15;;;;;;;1.52;1.10;;;;;;;17.92;87.71;99251.13;339266;28;4581;-72
2023/09/01 00:04:28;;;;;;;1.02;0.90;;;;;;;17.94;87.68;99251.88;339328;28;5142;-72
2023/09/01 00:04:40;;;;;;;1.40;1.00;;;;;;;17.94;87.67;99249.22;332802;28;17881;-72
2023/09/01 00:04:54;;;;;;;2.25;0.90;;;;;;;17.94;87.88;99248.41;339894;28;5385;-72
2023/09/01 00:05:07;;;;;;;2.35;0.98;;;;;;;17.92;87.84;99248.50;335391;28;17947;-72
2023/09/01 00:05:19;;;;;;;2.35;1.20;;;;;;;17.93;87.81;99246.72;339016;28;17564;-72
2023/09/01 00:05:34;;;;;;;2.65;1.20;;;;;;;17.93;87.99;99244.94;337407;28;4642;-72
2023/09/01 00:05:46;;;;;;;1.98;0.95;;;;;;;17.92;88.04;99245.88;335965;28;17694;-71
2023/09/01 00:06:01;;;;;;;2.60;0.90;;;;;;;17.93;88.07;99249.38;339116;28;4652;-71
2023/09/01 00:06:14;;;;;;;2.50;1.00;;;;;;;17.92;87.68;99251.13;336251;28;15096;-71
2023/09/01 00:06:26;;;;;;;1.98;1.10;;;;;;;17.92;87.81;99247.66;337508;28;18118;-71
2023/09/01 00:06:38;;;;;;;1.60;1.10;;;;;;;17.93;87.62;99247.56;340085;28;4636;-71
2023/09/01 00:06:50;;;;;;;1.45;1.10;;;;;;;17.92;87.63;99243.25;336489;28;17744;-71
2023/09/01 00:07:02;;;;;;;1.20;1.10;;;;;;;17.94;87.59;99253.66;334451;28;5067;-71
2023/09/01 00:07:14;;;;;;;1.02;0.90;;;;;;;17.89;87.55;99246.09;336638;28;12137;-72
2023/09/01 00:07:26;;;;;;;1.48;0.93;;;;;;;17.90;87.53;99249.56;338940;28;4582;-71
2023/09/01 00:07:39;;;;;;;1.88;1.13;;;;;;;17.86;87.49;99246.28;338238;28;5229;-71
2023/09/01 00:07:51;;;;;;;3.67;1.20;;;;;;;17.88;87.90;99244.41;335759;28;17916;-72
2023/09/01 00:08:03;;;;;;;3.50;1.17;;;;;;;17.88;88.06;99246.19;338929;28;4657;-71
2023/09/01 00:08:15;;;;;;;3.35;1.10;;;;;;;17.88;87.73;99244.41;340177;28;18127;-71
2023/09/01 00:08:28;;;;;;;1.40;1.10;;;;;;;17.88;87.77;99247.03;337228;28;16535;-72
2023/09/01 00:08:40;;;;;;;2.25;1.20;;;;;;;17.88;87.70;99243.56;335090;28;4803;-72
2023/09/01 00:08:52;;;;;;;1.95;1.10;;;;;;;17.86;87.61;99248.94;336444;28;19020;-73
2023/09/01 00:09:04;;;;;;;1.80;0.90;;;;;;;17.86;87.70;99246.28;339461;28;5725;-72
2023/09/01 00:09:16;;;;;;;1.13;0.88;;;;;;;17.87;87.86;99245.38;336258;28;12724;-71
2023/09/01 00:09:28;;;;;;;1.63;1.05;;;;;;;17.86;87.62;99240.22;338551;28;5496;-71
2023/09/01 00:09:40;;;;;;;1.60;1.10;;;;;;;17.84;87.42;99242.94;338047;28;10605;-71
2023/09/01 00:09:52;;;;;;;1.55;1.10;;;;;;;17.84;87.73;99242.94;334492;28;17429;-71
2023/09/01 00:10:05;;;;;;;2.28;1.10;;;;;;;17.84;87.63;99242.94;338076;28;4562;-71
2023/09/01 00:10:17;;;;;;;2.30;1.05;;;;;;;17.83;87.49;99243.91;336027;28;4933;-71
2023/09/01 00:10:29;;;;;;;1.42;0.93;;;;;;;17.83;87.50;99243.91;340105;28;6122;-70
2023/09/01 00:10:41;;;;;;;1.52;0.98;;;;;;;17.81;87.73;99244.91;340129;28;4651;-71
2023/09/01 00:10:53;;;;;;;2.28;0.95;;;;;;;17.78;87.79;99244.16;337687;28;19065;-72
2023/09/01 00:11:05;;;;;;;3.50;1.10;;;;;;;17.78;87.83;99238.06;340105;28;4549;-71
2023/09/01 00:11:19;;;;;;;3.40;1.20;;;;;;;17.77;88.04;99241.66;337859;28;9397;-72
2023/09/01 00:11:31;;;;;;;3.08;1.30;;;;;;;17.76;88.12;99245.22;337697;28;5225;-71
2023/09/01 00:11:43;;;;;;;3.40;1.23;;;;;;;17.76;88.11;99239.97;336729;28;19181;-71
2023/09/01 00:11:55;;;;;;;2.60;0.98;;;;;;;17.75;87.90;99238.31;340252;28;4644;-71
2023/09/01 00:12:07;;;;;;;2.80;0.85;;;;;;;17.75;88.14;99239.13;337691;28;18052;-72
2023/09/01 00:12:19;;;;;;;4.43;1.00;;;;;;;17.74;88.26;99241.84;340448;28;4473;-71
2023/09/01 00:12:31;;;;;;;3.43;1.10;;;;;;;17.76;88.46;99245.22;340068;28;5221;-71
2023/09/01 00:12:43;;;;;;;1.48;1.20;;;;;;;17.76;88.57;99239.97;337117;28;19051;-71
2023/09/01 00:12:57;;;;;;;1.75;1.10;;;;;;;17.77;88.47;99241.66;338626;28;4534;-71
2023/09/01 00:13:09;;;;;;;2.13;1.20;;;;;;;17.76;88.35;99239.97;336867;28;19237;-72
2023/09/01 00:13:21;;;;;;;2.65;1.25;;;;;;;17.77;88.70;99231.16;339947;28;4720;-71
2023/09/01 00:13:33;;;;;;;1.98;1.20;;;;;;;17.77;88.61;99242.50;337233;28;16135;-72
2023/09/01 00:13:45;;;;;;;1.50;1.00;;;;;;;17.77;88.66;99236.41;339842;28;4979;-71
2023/09/01 00:13:57;;;;;;;1.30;0.90;;;;;;;17.77;88.98;99233.78;337380;28;11360;-73
2023/09/01 00:14:10;;;;;;;1.02;0.90;;;;;;;17.75;89.28;99233.88;339866;28;4536;-72
2023/09/01 00:14:22;;;;;;;1.05;0.95;;;;;;;17.77;88.90;99225.88;339988;28;4782;-72
2023/09/01 00:14:33;;;;;;;1.40;1.00;;;;;;;17.78;88.73;99232.81;337078;28;12234;-72
2023/09/01 00:14:45;;;;;;;2.15;1.10;;;;;;;17.80;88.55;99235.34;339862;28;5227;-72
2023/09/01 00:14:58;;;;;;;2.47;1.00;;;;;;;17.80;88.69;99235.34;337495;28;12758;-72
2023/09/01 00:15:10;;;;;;;2.20;1.10;;;;;;;17.78;88.54;99238.06;338315;28;4623;-73
2023/09/01 00:15:22;;;;;;;2.28;1.15;;;;;;;17.78;88.90;99232.81;337917;28;4485;-72
2023/09/01 00:15:34;;;;;;;1.25;1.02;;;;;;;17.76;88.98;99230.28;335931;28;17999;-72
2023/09/01 00:15:47;;;;;;;1.10;1.00;;;;;;;17.77;89.25;99237.22;339575;28;5284;-72
2023/09/01 00:16:00;;;;;;;1.05;0.90;;;;;;;17.78;88.82;99233.66;331639;28;18985;-72
2023/09/01 00:16:12;;;;;;;1.00;0.90;;;;;;;17.80;88.85;99236.19;339936;28;4527;-71
2023/09/01 00:16:24;;;;;;;1.20;1.00;;;;;;;17.81;88.52;99232.63;337351;28;15909;-71
2023/09/01 00:16:36;;;;;;;1.35;1.05;;;;;;;17.83;88.46;99233.38;338557;28;4539;-71
2023/09/01 00:16:48;;;;;;;1.30;1.00;;;;;;;17.83;88.57;99233.38;341013;28;5391;-72
2023/09/01 00:17:00;;;;;;;1.33;1.00;;;;;;;17.81;88.57;99232.63;337848;28;17903;-72
2023/09/01 00:17:13;;;;;;;2.70;1.00;;;;;;;17.82;88.73;99231.66;338617;28;4493;-71
2023/09/01 00:17:25;;;;;;;2.95;1.13;;;;;;;17.81;88.35;99230.00;336865;28;18033;-72
2023/09/01 00:17:37;;;;;;;2.03;0.95;;;;;;;17.78;88.35;99225.75;334457;28;5206;-72
2023/09/01 00:17:49;;;;;;;1.40;0.90;;;;;;;17.78;88.35;99233.66;337500;28;12233;-71
2023/09/01 00:18:02;;;;;;;1.60;0.95;;;;;;;17.78;88.47;99224.94;340278;28;4419;-71
2023/09/01 00:18:14;;;;;;;1.55;1.00;;;;;;;17.79;88.43;99229.25;337099;28;5215;-72
2023/09/01 00:18:27;;;;;;;1.42;0.90;;;;;;;17.78;88.35;99227.56;338980;28;4697;-72
2023/09/01 00:18:39;;;;;;;1.30;0.90;;;;;;;17.80;88.29;99225.66;340280;28;4586;-71
2023/09/01 00:18:51;;;;;;;1.17;1.00;;;;;;;17.78;88.37;99224.94;337362;28;17952;-72
2023/09/01 00:19:03;;;;;;;1.10;1.00;;;;;;;17.76;88.12;99221.56;336017;28;5107;-72
2023/09/01 00:19:15;;;;;;;1.80;1.10;;;;;;;17.79;88.00;99226.63;337435;28;18325;-72
2023/09/01 00:19:27;;;;;;;1.95;1.10;;;;;;;17.80;88.13;99224.81;339242;28;5046;-71
2023/09/01 00:19:40;;;;;;;1.35;1.00;;;;;;;17.78;88.10;99228.38;339315;28;4646;-72
2023/09/01 00:19:52;;;;;;;1.90;1.02;;;;;;;17.81;88.16;99227.34;337455;28;17834;-72
2023/09/01 00:20:04;;;;;;;2.25;1.13;;;;;;;17.81;87.81;99230.00;339687;28;4706;-71
2023/09/01 00:20:16;;;;;;;2.30;1.10;;;;;;;17.82;87.90;99229.03;337092;28;18252;-72
2023/09/01 00:20:28;;;;;;;1.50;0.95;;;;;;;17.80;88.15;99230.91;339670;28;5405;-72
2023/09/01 00:20:40;;;;;;;1.75;1.10;;;;;;;17.80;88.23;99225.66;337523;28;5439;-72
2023/09/01 00:21:05;;;;;;;1.65;1.10;;;;;;;17.79;88.53;99224.00;339308;28;17265;-71
2023/09/01 00:21:17;;;;;;;1.65;1.00;;;;;;;17.81;88.39;99227.34;337167;28;17026;-71
2023/09/01 00:21:30;;;;;;;1.63;1.00;;;;;;;17.83;88.24;99224.59;339822;28;4851;-71
2023/09/01 00:21:42;;;;;;;1.92;1.17;;;;;;;17.82;88.32;99229.03;335922;28;18424;-72
2023/09/01 00:21:54;;;;;;;2.17;1.17;;;;;;;17.82;88.08;99231.66;334710;28;4802;-71
2023/09/01 00:22:06;;;;;;;2.10;1.13;;;;;;;17.81;88.25;99226.50;336769;28;16298;-72
2023/09/01 00:22:18;;;;;;;2.20;1.02;;;;;;;17.80;87.99;99225.66;339602;28;4618;-72
2023/09/01 00:22:30;;;;;;;1.98;1.10;;;;;;;17.82;87.85;99226.41;340002;28;5164;-72
2023/09/01 00:22:42;;;;;;;1.73;1.10;;;;;;;17.83;88.02;99232.47;337271;28;17774;-72
2023/09/01 00:22:55;;;;;;;1.70;1.10;;;;;;;17.84;88.01;99226.31;339632;28;5390;-72
2023/09/01 00:23:07;;;;;;;1.67;1.00;;;;;;;17.85;88.02;99228.84;337131;28;19138;-73
2023/09/01 00:23:19;;;;;;;1.70;1.02;;;;;;;17.86;87.94;99229.69;339698;28;4784;-73
2023/09/01 00:23:32;;;;;;;1.52;1.00;;;;;;;17.88;88.12;99231.25;334423;28;5527;-73
2023/09/01 00:23:44;;;;;;;1.73;0.98;;;;;;;17.89;87.89;99229.50;337575;28;17790;-73
2023/09/01 00:23:56;;;;;;;1.95;1.00;;;;;;;17.88;88.10;99231.25;340303;28;5253;-73
2023/09/01 00:24:08;;;;;;;2.83;1.15;;;;;;;17.88;87.88;99238.31;331651;28;18213;-73
2023/09/01 00:24:20;;;;;;;2.40;1.10;;;;;;;17.89;88.09;99235.59;338916;28;5614;-73
2023/09/01 00:24:32;;;;;;;1.70;1.05;;;;;;;17.90;88.42;99233.78;335988;28;11316;-73
2023/09/01 00:24:44;;;;;;;3.03;1.02;;;;;;;17.91;88.16;99235.47;338220;28;4915;-73
2023/09/01 00:24:56;;;;;;;3.33;0.95;;;;;;;17.91;87.84;99238.94;338875;28;4830;-73
2023/09/01 00:25:09;;;;;;;3.25;1.13;;;;;;;17.88;88.11;99233.88;334714;28;18028;-73
2023/09/01 00:25:21;;;;;;;1.60;1.10;;;;;;;17.90;88.02;99242.50;338560;28;4499;-73
2023/09/01 00:25:33;;;;;;;1.42;1.00;;;;;;;17.89;88.00;99240.84;336136;28;5485;-73
2023/09/01 00:25:45;;;;;;;2.30;1.00;;;;;;;17.90;88.09;99239.03;337284;28;5425;-72
2023/09/01 00:25:59;;;;;;;2.50;0.90;;;;;;;17.88;88.20;99243.56;336160;28;4560;-72
2023/09/01 00:26:11;;;;;;;2.60;1.00;;;;;;;17.87;88.25;99240.09;337494;28;4548;-72
2023/09/01 00:26:23;;;;;;;1.70;1.10;;;;;;;17.88;88.27;99244.41;328680;28;19013;-72
2023/09/01 00:26:35;;;;;;;1.75;1.00;;;;;;;17.89;88.00;99240.00;337483;28;4666;-72
2023/09/01 00:26:47;;;;;;;2.50;0.90;;;;;;;17.89;88.04;99240.84;337388;28;11521;-72
2023/09/01 00:27:00;;;;;;;2.30;0.88;;;;;;;17.90;88.17;99245.13;336002;28;17829;-72
2023/09/01 00:27:12;;;;;;;1.48;0.98;;;;;;;17.90;88.37;99246.94;338658;28;5241;-73
2023/09/01 00:27:24;;;;;;;2.88;1.00;;;;;;;17.87;88.40;99242.75;335252;28;16398;-72
2023/09/01 00:27:36;;;;;;;4.07;1.08;;;;;;;17.87;88.57;99245.38;338111;28;4557;-72
2023/09/01 00:27:48;;;;;;;3.10;1.00;;;;;;;17.87;88.68;99242.75;337764;28;17341;-71
2023/09/01 00:28:00;;;;;;;1.42;1.08;;;;;;;17.85;88.41;99242.00;331362;28;16869;-72
2023/09/01 00:28:12;;;;;;;1.55;1.08;;;;;;;17.84;88.49;99242.94;340156;28;4524;-71
2023/09/01 00:28:24;;;;;;;2.97;1.00;;;;;;;17.84;88.18;99250.00;332145;28;15909;-72
2023/09/01 00:28:36;;;;;;;3.40;1.10;;;;;;;17.85;88.04;99247.25;339950;28;4479;-72
2023/09/01 00:28:48;;;;;;;1.98;1.13;;;;;;;17.83;88.06;99245.63;338759;28;4581;-71
2023/09/01 00:29:00;;;;;;;1.95;1.02;;;;;;;17.85;88.19;99239.38;335721;28;18086;-72
2023/09/01 00:29:12;;;;;;;1.58;1.00;;;;;;;17.86;88.38;99240.22;338589;28;5463;-72
2023/09/01 00:29:24;;;;;;;1.73;1.10;;;;;;;17.76;89.13;99246.06;332811;28;5342;-73
2023/09/01 00:29:37;;;;;;;2.17;1.00;;;;;;;17.74;89.61;99242.69;338926;28;4611;-73
2023/09/01 00:29:49;;;;;;;2.03;0.98;;;;;;;17.70;89.85;99235.13;336798;28;18179;-73
2023/09/01 00:30:01;;;;;;;2.40;1.00;;;;;;;17.70;89.95;99240.38;339540;28;4503;-73
2023/09/01 00:30:13;;;;;;;2.25;1.00;;;;;;;17.70;89.80;99240.38;337898;28;4504;-73
2023/09/01 00:30:28;;;;;;;2.60;1.08;;;;;;;17.71;89.86;99244.72;338584;28;4546;-73
2023/09/01 00:30:54;;;;;;;2.05;1.20;;;;;;;17.76;89.53;99239.97;335171;28;19255;-73
2023/09/01 00:31:06;;;;;;;1.45;1.00;;;;;;;17.80;89.10;99241.44;334857;28;17096;-73
2023/09/01 00:31:20;;;;;;;1.75;1.05;;;;;;;17.79;89.36;99239.75;339001;28;4568;-72
2023/09/01 00:31:34;;;;;;;2.85;1.15;;;;;;;17.81;89.18;99243.13;335728;28;17758;-72
2023/09/01 00:31:46;;;;;;;3.65;1.42;;;;;;;17.84;89.19;99248.19;335479;28;17806;-72
2023/09/01 00:31:59;;;;;;;2.78;1.35;;;;;;;17.85;88.78;99244.63;338421;28;4946;-72
2023/09/01 00:32:11;;;;;;;2.88;1.17;;;;;;;17.87;88.68;99240.09;337126;28;18325;-73
2023/09/01 00:32:23;;;;;;;1.95;1.20;;;;;;;17.89;88.67;99251.34;334661;28;4551;-72
2023/09/01 00:32:35;;;;;;;1.52;1.17;;;;;;;17.91;88.44;99238.94;337878;28;18392;-73
2023/09/01 00:32:47;;;;;;;1.40;1.10;;;;;;;17.93;88.64;99237.06;340534;28;4723;-72
2023/09/01 00:32:59;;;;;;;1.42;1.10;;;;;;;17.95;88.51;99245.66;337068;28;5551;-72
2023/09/01 00:33:11;;;;;;;1.60;1.10;;;;;;;17.97;88.22;99242.94;340298;28;4635;-72
2023/09/01 00:33:26;;;;;;;1.50;1.00;;;;;;;17.98;87.93;99244.59;339422;28;5632;-73
2023/09/01 00:33:38;;;;;;;0.90;0.80;;;;;;;17.98;87.77;99243.78;336383;28;16736;-71
2023/09/01 00:33:50;;;;;;;1.00;0.90;;;;;;;17.97;87.74;99245.56;337542;28;5109;-73
2023/09/01 00:34:03;;;;;;;1.25;1.02;;;;;;;17.95;88.17;99244.84;336906;28;18150;-72
2023/09/01 00:34:15;;;;;;;1.33;0.98;;;;;;;17.92;87.99;99245.88;339231;28;5262;-72
2023/09/01 00:34:30;;;;;;;1.50;1.00;;;;;;;17.93;88.16;99242.31;337494;28;18442;-72
2023/09/01 00:34:42;;;;;;;1.67;1.20;;;;;;;17.96;88.42;99249.97;335708;28;17693;-73
2023/09/01 00:34:57;;;;;;;1.65;1.15;;;;;;;17.99;88.07;99250.69;340291;28;4538;-73
2023/09/01 00:35:10;;;;;;;2.00;1.10;;;;;;;18.01;88.07;99246.16;336814;28;17816;-73
2023/09/01 00:35:22;;;;;;;2.03;1.00;;;;;;;18.03;87.90;99252.16;337093;28;16423;-73
2023/09/01 00:35:34;;;;;;;1.65;0.95;;;;;;;18.04;87.96;99243.34;339541;28;5295;-73
2023/09/01 00:35:49;;;;;;;2.22;0.90;;;;;;;18.04;88.13;99244.19;336992;28;17969;-73
2023/09/01 00:36:01;;;;;;;2.15;0.90;;;;;;;18.05;87.69;99245.00;336839;28;17892;-73
2023/09/01 00:36:13;;;;;;;1.45;0.90;;;;;;;18.03;87.21;99245.13;340086;28;4697;-73
2023/09/01 00:36:25;;;;;;;1.48;1.15;;;;;;;18.04;86.78;99246.81;338672;28;9975;-73
2023/09/01 00:36:37;;;;;;;1.50;1.15;;;;;;;18.05;86.62;99245.00;337543;28;18156;-72
2023/09/01 00:36:50;;;;;;;1.42;1.10;;;;;;;18.04;87.04;99240.72;337950;28;5257;-72
2023/09/01 00:37:03;;;;;;;1.90;1.00;;;;;;;18.04;86.95;99244.19;336109;28;18763;-72
2023/09/01 00:37:15;;;;;;;2.90;1.00;;;;;;;18.04;86.70;99243.34;338368;28;5175;-73
2023/09/01 00:37:27;;;;;;;2.90;1.00;;;;;;;18.04;86.66;99238.09;336893;28;17327;-73
2023/09/01 00:37:39;;;;;;;2.03;1.02;;;;;;;18.01;86.66;99249.66;339410;28;4574;-72
2023/09/01 00:37:51;;;;;;;1.20;1.00;;;;;;;17.99;86.80;99253.31;339834;28;4721;-73
2023/09/01 00:38:03;;;;;;;1.23;0.90;;;;;;;17.99;87.10;99248.06;337054;28;18228;-73
2023/09/01 00:38:15;;;;;;;1.33;0.93;;;;;;;18.00;87.44;99252.41;339633;28;5537;-73
2023/09/01 00:38:29;;;;;;;1.13;0.98;;;;;;;18.01;87.46;99251.44;336849;28;5185;-72
2023/09/01 00:38:41;;;;;;;1.77;1.02;;;;;;;18.02;87.65;99251.34;336013;28;7964;-72
2023/09/01 00:38:54;;;;;;;2.00;0.93;;;;;;;18.03;87.29;99241.66;338478;28;5353;-72
2023/09/01 00:39:06;;;;;;;1.40;0.93;;;;;;;18.04;87.49;99241.56;338821;28;4544;-71
2023/09/01 00:39:19;;;;;;;1.40;1.00;;;;;;;18.04;87.10;99244.19;336061;28;19700;-72
2023/09/01 00:39:31;;;;;;;1.30;0.93;;;;;;;18.05;87.22;99248.50;340009;28;5392;-71
2023/09/01 00:39:43;;;;;;;1.30;0.90;;;;;;;18.06;87.10;99242.28;335179;28;17850;-72
2023/09/01 00:39:55;;;;;;;1.13;0.80;;;;;;;18.07;87.09;99248.38;337901;28;18433;-72
2023/09/01 00:40:07;;;;;;;0.75;0.70;;;;;;;18.07;87.16;99240.47;340453;28;4648;-71
2023/09/01 00:40:19;;;;;;;1.20;0.93;;;;;;;18.06;87.88;99241.44;335273;28;18943;-72
2023/09/01 00:40:31;;;;;;;1.60;1.23;;;;;;;18.04;88.08;99238.91;339708;28;5407;-72
2023/09/01 00:40:44;;;;;;;1.77;1.30;;;;;;;18.06;87.85;99242.28;336380;28;17961;-73
2023/09/01 00:40:56;;;;;;;1.45;1.00;;;;;;;18.06;88.04;99241.44;338963;28;4558;-73
2023/09/01 00:41:08;;;;;;;1.63;1.00;;;;;;;18.08;88.21;99244.81;331317;28;16672;-73
2023/09/01 00:41:20;;;;;;;1.40;1.00;;;;;;;18.08;87.90;99242.19;338852;28;4614;-72
2023/09/01 00:41:32;;;;;;;1.10;1.00;;;;;;;18.08;87.90;99240.38;338268;28;6344;-73
2023/09/01 00:41:44;;;;;;;1.10;1.00;;;;;;;18.08;87.60;99243.00;333117;28;18390;-73
2023/09/01 00:41:56;;;;;;;1.77;0.88;;;;;;;18.09;87.91;99241.22;340228;28;4592;-72
2023/09/01 00:42:08;;;;;;;1.88;0.98;;;;;;;18.07;88.54;99241.34;339958;28;4700;-72
2023/09/01 00:42:20;;;;;;;1.15;0.98;;;;;;;18.05;88.84;99242.38;336632;28;18923;-72
2023/09/01 00:42:32;;;;;;;1.10;0.90;;;;;;;18.07;88.61;99237.84;339741;28;4584;-72
2023/09/01 00:42:44;;;;;;;1.02;0.80;;;;;;;18.09;88.51;99241.22;337826;28;16432;-72
2023/09/01 00:42:56;;;;;;;1.33;1.00;;;;;;;18.08;88.65;99239.56;332312;28;18164;-72
2023/09/01 00:43:08;;;;;;;2.30;1.10;;;;;;;18.09;88.83;99238.59;338956;28;5217;-73
2023/09/01 00:43:20;;;;;;;2.70;1.10;;;;;;;18.10;88.47;99237.66;332111;28;4613;-73
2023/09/01 00:43:32;;;;;;;1.80;1.00;;;;;;;18.10;88.33;99237.66;339362;28;4531;-73
2023/09/01 00:43:44;;;;;;;2.28;1.08;;;;;;;18.10;88.01;99237.66;337964;28;4493;-72
2023/09/01 00:43:56;;;;;;;2.30;1.08;;;;;;;18.08;88.10;99243.00;338999;28;4705;-73
2023/09/01 00:44:13;;;;;;;2.20;1.00;;;;;;;18.09;88.07;99238.59;338956;28;4643;-72
2023/09/01 00:44:25;;;;;;;2.05;1.10;;;;;;;18.10;88.05;99241.13;339687;28;17686;-72
2023/09/01 00:44:37;;;;;;;2.33;1.20;;;;;;;18.10;87.91;99242.91;331770;28;18363;-72
2023/09/01 00:44:49;;;;;;;2.10;1.10;;;;;;;18.10;87.97;99235.03;339844;28;5217;-71
2023/09/01 00:45:02;;;;;;;1.50;1.08;;;;;;;18.10;87.87;99238.47;338055;28;18176;-72
2023/09/01 00:45:14;;;;;;;1.20;1.00;;;;;;;18.10;87.94;99240.28;339067;28;4543;-72
2023/09/01 00:45:27;;;;;;;2.03;1.00;;;;;;;18.11;88.08;99231.44;337669;28;12812;-71
2023/09/01 00:45:39;;;;;;;2.05;1.00;;;;;;;18.11;87.85;99231.44;339633;28;4559;-72
2023/09/01 00:45:51;;;;;;;2.40;1.17;;;;;;;18.11;88.02;99234.06;335083;28;18019;-72
2023/09/01 00:46:03;;;;;;;1.65;1.10;;;;;;;18.08;87.81;99229.03;336946;28;18366;-72
2023/09/01 00:46:16;;;;;;;1.88;1.00;;;;;;;18.09;87.76;99235.97;336578;28;16689;-72
2023/09/01 00:46:31;;;;;;;1.70;1.08;;;;;;;18.09;88.06;99236.81;338641;28;5180;-72
2023/09/01 00:46:46;;;;;;;2.33;1.50;;;;;;;18.09;87.97;99233.31;336658;28;17665;-72
2023/09/01 00:46:58;;;;;;;2.25;1.30;;;;;;;18.10;87.92;99229.75;336583;28;18677;-72
2023/09/01 00:47:11;;;;;;;1.52;1.00;;;;;;;18.11;87.72;99228.78;339207;28;5436;-72
2023/09/01 00:47:23;;;;;;;1.95;1.00;;;;;;;18.09;87.88;99236.81;336429;28;18215;-72
2023/09/01 00:47:35;;;;;;;2.55;1.10;;;;;;;18.09;87.93;99230.69;339655;28;4549;-73
2023/09/01 00:47:47;;;;;;;2.47;1.00;;;;;;;18.08;87.85;99229.03;335807;28;18179;-72
2023/09/01 00:47:59;;;;;;;1.83;1.00;;;;;;;18.07;88.02;99228.19;338612;28;5403;-72
2023/09/01 00:48:13;;;;;;;1.60;0.98;;;;;;;18.04;87.91;99233.66;336695;28;5295;-73
2023/09/01 00:48:25;;;;;;;1.80;1.15;;;;;;;18.04;88.24;99230.19;339841;28;4544;-73
2023/09/01 00:48:38;;;;;;;1.48;1.08;;;;;;;18.03;88.15;99228.50;337652;28;4558;-73
2023/09/01 00:48:50;;;;;;;1.40;0.93;;;;;;;18.04;88.13;99222.31;334187;28;4702;-73
2023/09/01 00:49:03;;;;;;;1.60;1.10;;;;;;;18.04;88.17;99230.19;337768;28;17811;-73
2023/09/01 00:49:18;;;;;;;1.73;1.15;;;;;;;18.03;87.98;99225.88;339811;28;4495;-73
2023/09/01 00:49:30;;;;;;;1.92;0.88;;;;;;;18.05;87.97;99223.97;337106;28;17979;-73
2023/09/01 00:49:42;;;;;;;2.58;0.88;;;;;;;18.03;88.06;99225.88;335872;28;18159;-73
2023/09/01 00:49:54;;;;;;;2.20;0.90;;;;;;;18.04;87.92;99227.56;338985;28;4896;-73
2023/09/01 00:50:08;;;;;;;1.70;0.90;;;;;;;18.03;88.01;99225.88;338589;28;4545;-72
2023/09/01 00:50:20;;;;;;;1.58;1.00;;;;;;;18.03;88.16;99221.47;335934;28;17910;-72
2023/09/01 00:50:33;;;;;;;1.85;1.00;;;;;;;18.04;88.31;99222.31;334300;28;4645;-72
2023/09/01 00:50:49;;;;;;;2.72;1.13;;;;;;;18.03;88.24;99221.47;337310;28;17798;-71
2023/09/01 00:51:01;;;;;;;1.80;0.95;;;;;;;18.03;88.70;99223.25;337098;28;17463;-72
2023/09/01 00:51:14;;;;;;;1.05;0.88;;;;;;;18.03;88.76;99223.25;335753;28;18756;-71
2023/09/01 00:51:27;;;;;;;1.77;1.00;;;;;;;18.03;88.85;99220.59;338411;28;4862;-72
2023/09/01 00:51:39;;;;;;;1.70;1.00;;;;;;;18.04;88.57;99224.94;336610;28;18050;-72
2023/09/01 00:51:51;;;;;;;0.95;0.90;;;;;;;18.03;88.67;99215.34;339295;28;4742;-72
2023/09/01 00:52:04;;;;;;;1.80;1.00;;;;;;;18.04;88.46;99222.31;332685;28;13498;-72
2023/09/01 00:52:16;;;;;;;1.88;1.00;;;;;;;18.04;88.49;99220.50;339373;28;4701;-72
2023/09/01 00:52:28;;;;;;;3.00;1.00;;;;;;;18.06;88.50;99223.03;339753;28;4731;-73
2023/09/01 00:52:41;;;;;;;2.95;1.27;;;;;;;18.04;88.98;99219.69;333713;28;19106;-73
2023/09/01 00:52:54;;;;;;;2.78;1.30;;;;;;;18.05;89.01;99218.72;339522;28;4495;-72
2023/09/01 00:53:06;;;;;;;2.13;1.15;;;;;;;18.03;89.13;99217.97;337058;28;17827;-72
2023/09/01 00:53:19;;;;;;;1.80;1.10;;;;;;;18.05;88.92;99226.59;336849;28;10505;-72
2023/09/01 00:53:31;;;;;;;1.13;1.02;;;;;;;18.05;88.75;99219.56;336355;28;17260;-72
2023/09/01 00:53:43;;;;;;;1.77;1.00;;;;;;;18.05;88.76;99216.09;338240;28;5278;-72
2023/09/01 00:53:55;;;;;;;2.20;1.00;;;;;;;18.05;88.72;99219.56;337221;28;17896;-72
2023/09/01 00:54:08;;;;;;;1.77;1.00;;;;;;;18.05;88.65;99221.34;340086;28;4538;-72
2023/09/01 00:54:20;;;;;;;1.95;1.05;;;;;;;18.06;88.80;99220.41;337212;28;18065;-73
2023/09/01 00:54:34;;;;;;;1.83;1.08;;;;;;;18.08;88.72;99223.78;339953;28;4477;-73
2023/09/01 00:54:46;;;;;;;2.30;1.02;;;;;;;18.05;88.72;99219.56;336156;28;17882;-73
2023/09/01 00:54:58;;;;;;;2.58;1.00;;;;;;;18.07;88.80;99222.06;338863;28;4741;-73
2023/09/01 00:55:11;;;;;;;2.45;1.00;;;;;;;18.06;88.62;99221.25;336097;28;19010;-73
2023/09/01 00:55:23;;;;;;;2.85;1.10;;;;;;;18.07;88.71;99222.06;339396;28;4562;-73
2023/09/01 00:55:36;;;;;;;1.80;0.98;;;;;;;18.08;88.70;99223.78;336660;28;17832;-72
2023/09/01 00:55:49;;;;;;;1.55;0.90;;;;;;;18.07;88.84;99217.69;338662;28;4594;-72
2023/09/01 00:56:03;;;;;;;1.00;0.80;;;;;;;18.09;88.61;99225.44;335936;28;18139;-72
2023/09/01 00:56:15;;;;;;;1.73;0.90;;;;;;;18.09;88.94;99215.78;337370;28;16009;-72
2023/09/01 00:56:28;;;;;;;1.90;1.00;;;;;;;18.09;88.99;99230.69;336158;28;18795;-72
2023/09/01 00:56:41;;;;;;;1.95;1.05;;;;;;;18.09;89.04;99222.81;335619;28;11594;-73
2023/09/01 00:56:56;;;;;;;1.67;1.00;;;;;;;18.08;89.13;99223.78;339526;28;4613;-73
2023/09/01 00:57:08;;;;;;;1.70;0.98;;;;;;;18.07;89.10;99222.94;337381;28;18026;-73
2023/09/01 00:57:20;;;;;;;1.80;0.90;;;;;;;18.07;89.10;99227.34;336215;28;11123;-73
2023/09/01 00:57:33;;;;;;;1.17;0.95;;;;;;;18.07;89.10;99227.34;339636;28;4679;-73
2023/09/01 00:57:45;;;;;;;1.23;1.00;;;;;;;18.08;88.94;99221.13;334990;28;4678;-73
2023/09/01 00:57:59;;;;;;;1.80;1.10;;;;;;;18.09;88.73;99226.31;339743;28;5338;-72
2023/09/01 00:58:12;;;;;;;1.60;0.95;;;;;;;18.12;88.56;99222.59;337326;28;18049;-72
2023/09/01 00:58:27;;;;;;;1.38;0.90;;;;;;;18.10;88.16;99222.72;339303;28;5238;-72
2023/09/01 00:58:39;;;;;;;1.63;1.00;;;;;;;18.10;88.05;99214.81;336145;28;17882;-72
2023/09/01 00:58:52;;;;;;;1.70;0.90;;;;;;;18.12;88.21;99217.34;337282;28;18322;-72
2023/09/01 00:59:04;;;;;;;1.10;0.90;;;;;;;18.10;88.17;99221.88;339663;28;4641;-72
2023/09/01 00:59:16;;;;;;;1.30;1.10;;;;;;;18.12;88.06;99219.97;332213;28;18104;-72
2023/09/01 00:59:28;;;;;;;1.33;1.15;;;;;;;18.10;87.97;99221.88;339949;28;6060;-72
2023/09/01 00:59:40;;;;;;;1.50;1.20;;;;;;;18.13;88.02;99219.03;333564;28;11292;-72
2023/09/01 00:59:52;;;;;;;1.75;1.20;;;;;;;18.12;88.05;99220.81;339727;28;8548;-72
2023/09/01 01:00:05;;;;;;;1.60;1.20;;;;;;;18.12;88.02;99222.59;339653;28;4829;-72